sensor_id;sensor_type;location;lat;lon;timestamp;pressure;altitude;pressure_sealevel;temperature;humidity
11329;BME280;5719;42.714;23.732;2024-03-06T00:00:53;94171.28;;;3.67;98.91
11329;BME280;5719;42.714;23.732;2024-03-06T00:03:21;94167.38;;;3.60;99.29
11329;BME280;5719;42.714;23.732;2024-03-06T00:05:47;94171.00;;;3.56;99.17
11329;BME280;5719;42.714;23.732;2024-03-06T00:08:15;94171.16;;;3.53;99.87
11329;BME280;5719;42.714;23.732;2024-03-06T00:10:41;94160.31;;;3.48;100.00
11329;BME280;5719;42.714;23.732;2024-03-06T00:13:08;94170.38;;;3.51;99.99
11329;BME280;5719;42.714;23.732;2024-03-06T00:15:35;94179.72;;;3.52;100.00
11329;BME280;5719;42.714;23.732;2024-03-06T00:18:02;94173.09;;;3.48;99.97
11329;BME280;5719;42.714;23.732;2024-03-06T00:20:32;94171.06;;;3.37;100.00
11329;BME280;5719;42.714;23.732;2024-03-06T00:22:58;94173.47;;;3.40;100.00
11329;BME280;5719;42.714;23.732;2024-03-06T00:25:25;94177.69;;;3.41;100.00
11329;BME280;5719;42.714;23.732;2024-03-06T00:27:52;94170.25;;;3.37;100.00
11329;BME280;5719;42.714;23.732;2024-03-06T00:30:19;94167.22;;;3.29;100.00
11329;BME280;5719;42.714;23.732;2024-03-06T00:32:46;94170.56;;;3.31;100.00
11329;BME280;5719;42.714;23.732;2024-03-06T00:35:13;94171.13;;;3.19;100.00
11329;BME280;5719;42.714;23.732;2024-03-06T00:37:41;94176.31;;;3.00;100.00
11329;BME280;5719;42.714;23.732;2024-03-06T00:40:08;94173.84;;;2.99;100.00
11329;BME280;5719;42.714;23.732;2024-03-06T00:42:35;94171.41;;;2.95;100.00
11329;BME280;5719;42.714;23.732;2024-03-06T00:45:02;94165.72;;;2.90;100.00
11329;BME280;5719;42.714;23.732;2024-03-06T00:47:29;94174.63;;;2.82;100.00
11329;BME280;5719;42.714;23.732;2024-03-06T00:49:56;94173.19;;;2.76;100.00
11329;BME280;5719;42.714;23.732;2024-03-06T00:52:23;94171.69;;;2.72;100.00
11329;BME280;5719;42.714;23.732;2024-03-06T00:54:51;94175.47;;;2.64;100.00
11329;BME280;5719;42.714;23.732;2024-03-06T00:57:17;94174.44;;;2.49;100.00
11329;BME280;5719;42.714;23.732;2024-03-06T00:59:44;94184.31;;;2.57;100.00
11329;BME280;5719;42.714;23.732;2024-03-06T01:02:11;94181.06;;;2.53;100.00
11329;BME280;5719;42.714;23.732;2024-03-06T01:04:37;94184.47;;;2.54;100.00
11329;BME280;5719;42.714;23.732;2024-03-06T01:07:04;94184.47;;;2.54;100.00
11329;BME280;5719;42.714;23.732;2024-03-06T01:09:31;94175.91;;;2.55;100.00
11329;BME280;5719;42.714;23.732;2024-03-06T01:11:59;94169.34;;;2.49;100.00
11329;BME280;5719;42.714;23.732;2024-03-06T01:14:26;94182.41;;;2.43;100.00
11329;BME280;5719;42.714;23.732;2024-03-06T01:16:52;94158.47;;;2.27;100.00
11329;BME280;5719;42.714;23.732;2024-03-06T01:19:19;94179.50;;;2.32;100.00
11329;BME280;5719;42.714;23.732;2024-03-06T01:21:46;94172.53;;;2.17;100.00
11329;BME280;5719;42.714;23.732;2024-03-06T01:24:14;94182.44;;;2.23;100.00
11329;BME280;5719;42.714;23.732;2024-03-06T01:26:40;94176.66;;;2.19;100.00
11329;BME280;5719;42.714;23.732;2024-03-06T01:29:08;94193.44;;;2.25;100.00
11329;BME280;5719;42.714;23.732;2024-03-06T01:31:35;94187.69;;;2.20;100.00
11329;BME280;5719;42.714;23.732;2024-03-06T01:34:02;94176.31;;;2.08;100.00
11329;BME280;5719;42.714;23.732;2024-03-06T01:36:29;94188.72;;;2.16;100.00
11329;BME280;5719;42.714;23.732;2024-03-06T01:38:56;94180.66;;;2.06;100.00
11329;BME280;5719;42.714;23.732;2024-03-06T01:41:22;94187.09;;;2.15;100.00
11329;BME280;5719;42.714;23.732;2024-03-06T01:43:50;94187.97;;;2.14;100.00
11329;BME280;5719;42.714;23.732;2024-03-06T01:46:18;94189.69;;;2.13;100.00
11329;BME280;5719;42.714;23.732;2024-03-06T01:48:45;94182.88;;;2.14;100.00
11329;BME280;5719;42.714;23.732;2024-03-06T01:51:12;94189.50;;;2.18;100.00
11329;BME280;5719;42.714;23.732;2024-03-06T01:53:39;94194.59;;;2.18;100.00
11329;BME280;5719;42.714;23.732;2024-03-06T01:56:07;94197.41;;;2.12;100.00
11329;BME280;5719;42.714;23.732;2024-03-06T01:58:38;94199.25;;;2.08;100.00
11329;BME280;5719;42.714;23.732;2024-03-06T02:01:06;94205.59;;;2.00;100.00
11329;BME280;5719;42.714;23.732;2024-03-06T02:03:34;94202.28;;;1.97;100.00
11329;BME280;5719;42.714;23.732;2024-03-06T02:06:02;94197.31;;;1.94;100.00
11329;BME280;5719;42.714;23.732;2024-03-06T02:08:29;94203.94;;;1.98;100.00
11329;BME280;5719;42.714;23.732;2024-03-06T02:10:57;94199.94;;;1.93;100.00
11329;BME280;5719;42.714;23.732;2024-03-06T02:13:25;94201.75;;;1.89;100.00
11329;BME280;5719;42.714;23.732;2024-03-06T02:15:52;94199.34;;;1.86;100.00
11329;BME280;5719;42.714;23.732;2024-03-06T02:18:19;94202.94;;;1.82;100.00
11329;BME280;5719;42.714;23.732;2024-03-06T02:20:47;94213.00;;;1.65;100.00
11329;BME280;5719;42.714;23.732;2024-03-06T02:23:16;94209.16;;;1.57;100.00
11329;BME280;5719;42.714;23.732;2024-03-06T02:25:44;94210.47;;;1.65;100.00
11329;BME280;5719;42.714;23.732;2024-03-06T02:28:11;94213.09;;;1.64;100.00
11329;BME280;5719;42.714;23.732;2024-03-06T02:30:38;94205.22;;;1.68;100.00
11329;BME280;5719;42.714;23.732;2024-03-06T02:33:05;94210.19;;;1.71;100.00
11329;BME280;5719;42.714;23.732;2024-03-06T02:35:33;94211.81;;;1.74;100.00
11329;BME280;5719;42.714;23.732;2024-03-06T02:38:02;94203.47;;;1.70;100.00
11329;BME280;5719;42.714;23.732;2024-03-06T02:40:29;94214.34;;;1.74;100.00
11329;BME280;5719;42.714;23.732;2024-03-06T02:42:56;94211.34;;;1.64;100.00
11329;BME280;5719;42.714;23.732;2024-03-06T02:45:23;94213.56;;;1.72;100.00
11329;BME280;5719;42.714;23.732;2024-03-06T02:47:50;94207.31;;;1.79;100.00
11329;BME280;5719;42.714;23.732;2024-03-06T02:50:17;94212.38;;;1.80;100.00
11329;BME280;5719;42.714;23.732;2024-03-06T02:52:43;94208.06;;;1.62;100.00
11329;BME280;5719;42.714;23.732;2024-03-06T02:55:11;94212.69;;;1.32;100.00
11329;BME280;5719;42.714;23.732;2024-03-06T02:57:38;94213.53;;;1.33;100.00
11329;BME280;5719;42.714;23.732;2024-03-06T03:00:06;94211.38;;;1.44;100.00
11329;BME280;5719;42.714;23.732;2024-03-06T03:02:38;94218.69;;;1.52;100.00
11329;BME280;5719;42.714;23.732;2024-03-06T03:05:05;94204.81;;;1.59;100.00
11329;BME280;5719;42.714;23.732;2024-03-06T03:07:32;94206.91;;;1.69;100.00
11329;BME280;5719;42.714;23.732;2024-03-06T03:09:59;94207.03;;;1.66;100.00
11329;BME280;5719;42.714;23.732;2024-03-06T03:12:27;94214.16;;;1.58;100.00
11329;BME280;5719;42.714;23.732;2024-03-06T03:14:54;94209.84;;;1.60;100.00
11329;BME280;5719;42.714;23.732;2024-03-06T03:17:20;94210.03;;;1.56;100.00
11329;BME280;5719;42.714;23.732;2024-03-06T03:19:47;94212.31;;;1.62;100.00
11329;BME280;5719;42.714;23.732;2024-03-06T03:22:14;94211.94;;;1.71;100.00
11329;BME280;5719;42.714;23.732;2024-03-06T03:24:41;94205.00;;;1.74;100.00
11329;BME280;5719;42.714;23.732;2024-03-06T03:27:08;94205.59;;;1.79;100.00
11329;BME280;5719;42.714;23.732;2024-03-06T03:29:37;94214.50;;;1.89;100.00
11329;BME280;5719;42.714;23.732;2024-03-06T03:32:04;94217.56;;;1.97;100.00
11329;BME280;5719;42.714;23.732;2024-03-06T03:34:31;94204.13;;;1.94;100.00
11329;BME280;5719;42.714;23.732;2024-03-06T03:36:57;94213.84;;;2.05;100.00
11329;BME280;5719;42.714;23.732;2024-03-06T03:39:24;94206.09;;;2.08;100.00
11329;BME280;5719;42.714;23.732;2024-03-06T03:41:52;94204.44;;;2.07;100.00
11329;BME280;5719;42.714;23.732;2024-03-06T03:44:19;94198.00;;;1.98;100.00
11329;BME280;5719;42.714;23.732;2024-03-06T03:46:47;94218.13;;;2.04;100.00
11329;BME280;5719;42.714;23.732;2024-03-06T03:49:14;94216.53;;;2.02;100.00
11329;BME280;5719;42.714;23.732;2024-03-06T03:51:41;94211.53;;;2.00;100.00
11329;BME280;5719;42.714;23.732;2024-03-06T03:54:08;94228.91;;;2.11;100.00
11329;BME280;5719;42.714;23.732;2024-03-06T03:56:35;94228.69;;;2.15;100.00
11329;BME280;5719;42.714;23.732;2024-03-06T03:59:01;94222.97;;;2.10;100.00
11329;BME280;5719;42.714;23.732;2024-03-06T04:01:28;94237.84;;;2.19;100.00
11329;BME280;5719;42.714;23.732;2024-03-06T04:03:56;94233.19;;;2.29;100.00
11329;BME280;5719;42.714;23.732;2024-03-06T04:06:23;94236.44;;;2.32;100.00
11329;BME280;5719;42.714;23.732;2024-03-06T04:08:50;94238.75;;;2.37;100.00
11329;BME280;5719;42.714;23.732;2024-03-06T04:11:17;94235.34;;;2.38;100.00
11329;BME280;5719;42.714;23.732;2024-03-06T04:13:44;94233.59;;;2.38;100.00
11329;BME280;5719;42.714;23.732;2024-03-06T04:16:16;94234.16;;;2.45;100.00
11329;BME280;5719;42.714;23.732;2024-03-06T04:18:42;94229.06;;;2.45;100.00
11329;BME280;5719;42.714;23.732;2024-03-06T04:21:12;94234.59;;;2.55;100.00
11329;BME280;5719;42.714;23.732;2024-03-06T04:23:40;94243.88;;;2.56;100.00
11329;BME280;5719;42.714;23.732;2024-03-06T04:26:07;94237.88;;;2.38;100.00
11329;BME280;5719;42.714;23.732;2024-03-06T04:28:33;94248.56;;;2.46;100.00
11329;BME280;5719;42.714;23.732;2024-03-06T04:31:00;94240.50;;;2.55;100.00
11329;BME280;5719;42.714;23.732;2024-03-06T04:33:27;94246.22;;;2.60;100.00
11329;BME280;5719;42.714;23.732;2024-03-06T04:35:53;94248.56;;;2.46;100.00
11329;BME280;5719;42.714;23.732;2024-03-06T04:38:22;94241.91;;;2.43;100.00
11329;BME280;5719;42.714;23.732;2024-03-06T04:40:48;94239.00;;;2.51;100.00
11329;BME280;5719;42.714;23.732;2024-03-06T04:43:15;94258.66;;;2.49;100.00
11329;BME280;5719;42.714;23.732;2024-03-06T04:45:42;94258.50;;;2.52;100.00
11329;BME280;5719;42.714;23.732;2024-03-06T04:48:09;94258.25;;;2.58;100.00
11329;BME280;5719;42.714;23.732;2024-03-06T04:50:36;94258.72;;;2.66;100.00
11329;BME280;5719;42.714;23.732;2024-03-06T04:53:03;94255.69;;;2.58;100.00
11329;BME280;5719;42.714;23.732;2024-03-06T04:55:31;94261.25;;;2.66;100.00
11329;BME280;5719;42.714;23.732;2024-03-06T04:57:57;94273.06;;;2.69;100.00
11329;BME280;5719;42.714;23.732;2024-03-06T05:00:24;94280.44;;;2.75;100.00
11329;BME280;5719;42.714;23.732;2024-03-06T05:02:51;94283.53;;;2.81;100.00
11329;BME280;5719;42.714;23.732;2024-03-06T05:05:18;94285.91;;;2.86;100.00
11329;BME280;5719;42.714;23.732;2024-03-06T05:07:45;94274.84;;;2.85;100.00
11329;BME280;5719;42.714;23.732;2024-03-06T05:10:12;94279.66;;;2.91;100.00
11329;BME280;5719;42.714;23.732;2024-03-06T05:12:41;94291.97;;;3.02;100.00
11329;BME280;5719;42.714;23.732;2024-03-06T05:15:09;94292.91;;;3.00;100.00
11329;BME280;5719;42.714;23.732;2024-03-06T05:17:36;94293.69;;;3.02;100.00
11329;BME280;5719;42.714;23.732;2024-03-06T05:20:03;94294.38;;;3.05;100.00
11329;BME280;5719;42.714;23.732;2024-03-06T05:22:30;94296.69;;;3.10;100.00
11329;BME280;5719;42.714;23.732;2024-03-06T05:24:57;94297.31;;;3.15;100.00
11329;BME280;5719;42.714;23.732;2024-03-06T05:27:24;94296.34;;;3.17;100.00
11329;BME280;5719;42.714;23.732;2024-03-06T05:29:53;94293.44;;;3.25;100.00
11329;BME280;5719;42.714;23.732;2024-03-06T05:32:20;94290.69;;;3.29;100.00
11329;BME280;5719;42.714;23.732;2024-03-06T05:34:46;94285.03;;;3.23;100.00
11329;BME280;5719;42.714;23.732;2024-03-06T05:37:13;94302.91;;;3.23;100.00
11329;BME280;5719;42.714;23.732;2024-03-06T05:39:40;94303.81;;;3.22;100.00
11329;BME280;5719;42.714;23.732;2024-03-06T05:42:07;94303.22;;;3.17;100.00
11329;BME280;5719;42.714;23.732;2024-03-06T05:44:34;94300.34;;;3.23;100.00
11329;BME280;5719;42.714;23.732;2024-03-06T05:47:03;94315.69;;;3.23;100.00
11329;BME280;5719;42.714;23.732;2024-03-06T05:49:29;94310.28;;;3.29;100.00
11329;BME280;5719;42.714;23.732;2024-03-06T05:51:58;94322.00;;;3.33;100.00
11329;BME280;5719;42.714;23.732;2024-03-06T05:54:25;94321.72;;;3.39;100.00
11329;BME280;5719;42.714;23.732;2024-03-06T05:56:53;94327.41;;;3.45;100.00
11329;BME280;5719;42.714;23.732;2024-03-06T05:59:20;94323.84;;;3.48;100.00
11329;BME280;5719;42.714;23.732;2024-03-06T06:01:47;94309.56;;;3.44;100.00
11329;BME280;5719;42.714;23.732;2024-03-06T06:04:15;94321.00;;;3.54;100.00
11329;BME280;5719;42.714;23.732;2024-03-06T06:06:42;94322.38;;;3.61;100.00
11329;BME280;5719;42.714;23.732;2024-03-06T06:09:08;94321.31;;;3.65;100.00
11329;BME280;5719;42.714;23.732;2024-03-06T06:11:41;94332.16;;;3.70;100.00
11329;BME280;5719;42.714;23.732;2024-03-06T06:14:08;94328.47;;;3.59;100.00
11329;BME280;5719;42.714;23.732;2024-03-06T06:16:36;94311.09;;;3.48;100.00
11329;BME280;5719;42.714;23.732;2024-03-06T06:19:03;94324.19;;;3.59;100.00
11329;BME280;5719;42.714;23.732;2024-03-06T06:21:32;94312.13;;;3.61;100.00
11329;BME280;5719;42.714;23.732;2024-03-06T06:24:01;94322.25;;;3.64;100.00
11329;BME280;5719;42.714;23.732;2024-03-06T06:26:29;94328.84;;;3.68;100.00
11329;BME280;5719;42.714;23.732;2024-03-06T06:28:56;94335.94;;;3.80;100.00
11329;BME280;5719;42.714;23.732;2024-03-06T06:31:23;94344.66;;;3.93;100.00
11329;BME280;5719;42.714;23.732;2024-03-06T06:33:50;94344.06;;;4.06;100.00
11329;BME280;5719;42.714;23.732;2024-03-06T06:36:17;94340.97;;;4.16;100.00
11329;BME280;5719;42.714;23.732;2024-03-06T06:38:46;94331.34;;;4.21;100.00
11329;BME280;5719;42.714;23.732;2024-03-06T06:41:13;94338.50;;;4.32;100.00
11329;BME280;5719;42.714;23.732;2024-03-06T06:43:40;94315.63;;;4.29;100.00
11329;BME280;5719;42.714;23.732;2024-03-06T06:46:07;94327.03;;;4.39;100.00
11329;BME280;5719;42.714;23.732;2024-03-06T06:48:33;94333.78;;;4.57;100.00
11329;BME280;5719;42.714;23.732;2024-03-06T06:51:00;94342.38;;;4.56;100.00
11329;BME280;5719;42.714;23.732;2024-03-06T06:53:27;94340.47;;;4.60;100.00
11329;BME280;5719;42.714;23.732;2024-03-06T06:55:56;94331.50;;;4.35;100.00
11329;BME280;5719;42.714;23.732;2024-03-06T06:58:23;94343.44;;;4.35;100.00
11329;BME280;5719;42.714;23.732;2024-03-06T07:00:52;94344.38;;;4.00;100.00
11329;BME280;5719;42.714;23.732;2024-03-06T07:03:19;94344.38;;;4.17;100.00
11329;BME280;5719;42.714;23.732;2024-03-06T07:05:47;94345.66;;;4.25;100.00
11329;BME280;5719;42.714;23.732;2024-03-06T07:08:13;94343.06;;;4.42;100.00
11329;BME280;5719;42.714;23.732;2024-03-06T07:10:40;94328.56;;;4.43;100.00
11329;BME280;5719;42.714;23.732;2024-03-06T07:13:08;94341.31;;;4.60;100.00
11329;BME280;5719;42.714;23.732;2024-03-06T07:15:35;94334.00;;;4.70;100.00
11329;BME280;5719;42.714;23.732;2024-03-06T07:18:02;94333.13;;;4.86;100.00
11329;BME280;5719;42.714;23.732;2024-03-06T07:20:30;94321.97;;;4.87;100.00
11329;BME280;5719;42.714;23.732;2024-03-06T07:22:57;94332.31;;;5.02;100.00
11329;BME280;5719;42.714;23.732;2024-03-06T07:25:24;94334.38;;;5.11;100.00
11329;BME280;5719;42.714;23.732;2024-03-06T07:27:51;94341.09;;;5.13;100.00
11329;BME280;5719;42.714;23.732;2024-03-06T07:30:19;94339.94;;;5.19;100.00
11329;BME280;5719;42.714;23.732;2024-03-06T07:32:47;94342.75;;;5.30;100.00
11329;BME280;5719;42.714;23.732;2024-03-06T07:35:14;94327.53;;;5.27;100.00
11329;BME280;5719;42.714;23.732;2024-03-06T07:37:41;94331.84;;;5.42;100.00
11329;BME280;5719;42.714;23.732;2024-03-06T07:40:10;94333.41;;;5.44;100.00
11329;BME280;5719;42.714;23.732;2024-03-06T07:42:37;94324.03;;;5.59;100.00
11329;BME280;5719;42.714;23.732;2024-03-06T07:45:05;94321.91;;;5.52;100.00
11329;BME280;5719;42.714;23.732;2024-03-06T07:47:34;94334.97;;;5.63;100.00
11329;BME280;5719;42.714;23.732;2024-03-06T07:50:03;94338.25;;;5.80;100.00
11329;BME280;5719;42.714;23.732;2024-03-06T07:52:31;94326.25;;;5.97;100.00
11329;BME280;5719;42.714;23.732;2024-03-06T07:54:58;94331.03;;;6.03;100.00
11329;BME280;5719;42.714;23.732;2024-03-06T07:57:25;94334.88;;;6.10;100.00
11329;BME280;5719;42.714;23.732;2024-03-06T07:59:51;94329.47;;;6.30;100.00
11329;BME280;5719;42.714;23.732;2024-03-06T08:02:20;94339.22;;;6.23;100.00
11329;BME280;5719;42.714;23.732;2024-03-06T08:04:48;94326.91;;;6.30;100.00
11329;BME280;5719;42.714;23.732;2024-03-06T08:07:15;94328.34;;;6.34;100.00
11329;BME280;5719;42.714;23.732;2024-03-06T08:09:42;94333.22;;;6.38;100.00
11329;BME280;5719;42.714;23.732;2024-03-06T08:12:08;94339.66;;;6.46;100.00
11329;BME280;5719;42.714;23.732;2024-03-06T08:14:35;94341.78;;;6.67;100.00
11329;BME280;5719;42.714;23.732;2024-03-06T08:17:02;94344.19;;;6.84;100.00
11329;BME280;5719;42.714;23.732;2024-03-06T08:19:29;94336.94;;;6.77;100.00
11329;BME280;5719;42.714;23.732;2024-03-06T08:21:57;94338.47;;;6.51;100.00
11329;BME280;5719;42.714;23.732;2024-03-06T08:24:24;94347.56;;;6.71;100.00
11329;BME280;5719;42.714;23.732;2024-03-06T08:26:51;94343.44;;;6.97;100.00
11329;BME280;5719;42.714;23.732;2024-03-06T08:29:18;94350.06;;;7.01;100.00
11329;BME280;5719;42.714;23.732;2024-03-06T08:31:45;94331.16;;;7.16;100.00
11329;BME280;5719;42.714;23.732;2024-03-06T08:34:12;94340.22;;;7.35;100.00
11329;BME280;5719;42.714;23.732;2024-03-06T08:36:38;94341.19;;;7.61;100.00
11329;BME280;5719;42.714;23.732;2024-03-06T08:39:06;94345.13;;;7.94;100.00
11329;BME280;5719;42.714;23.732;2024-03-06T08:41:37;94338.38;;;8.18;100.00
11329;BME280;5719;42.714;23.732;2024-03-06T08:44:04;94326.91;;;8.36;100.00
11329;BME280;5719;42.714;23.732;2024-03-06T08:46:31;94328.91;;;8.45;100.00
11329;BME280;5719;42.714;23.732;2024-03-06T08:48:58;94322.59;;;8.74;100.00
11329;BME280;5719;42.714;23.732;2024-03-06T08:51:27;94326.44;;;9.07;97.85
11329;BME280;5719;42.714;23.732;2024-03-06T08:53:53;94327.88;;;8.98;95.85
11329;BME280;5719;42.714;23.732;2024-03-06T08:56:21;94328.53;;;9.38;96.06
11329;BME280;5719;42.714;23.732;2024-03-06T08:58:48;94325.78;;;9.89;92.10
11329;BME280;5719;42.714;23.732;2024-03-06T09:01:15;94322.38;;;10.12;87.81
11329;BME280;5719;42.714;23.732;2024-03-06T09:03:42;94320.75;;;9.98;88.72
11329;BME280;5719;42.714;23.732;2024-03-06T09:06:09;94323.00;;;10.15;86.85
11329;BME280;5719;42.714;23.732;2024-03-06T09:08:36;94306.25;;;10.78;86.07
11329;BME280;5719;42.714;23.732;2024-03-06T09:11:03;94323.09;;;11.39;82.61
11329;BME280;5719;42.714;23.732;2024-03-06T09:13:32;94312.50;;;11.42;81.16
11329;BME280;5719;42.714;23.732;2024-03-06T09:15:59;94307.81;;;11.36;80.20
11329;BME280;5719;42.714;23.732;2024-03-06T09:18:26;94307.94;;;12.00;79.27
11329;BME280;5719;42.714;23.732;2024-03-06T09:20:53;94312.38;;;12.41;76.28
11329;BME280;5719;42.714;23.732;2024-03-06T09:23:20;94306.19;;;12.53;76.65
11329;BME280;5719;42.714;23.732;2024-03-06T09:25:46;94304.22;;;12.45;75.64
11329;BME280;5719;42.714;23.732;2024-03-06T09:28:13;94302.34;;;12.15;78.40
11329;BME280;5719;42.714;23.732;2024-03-06T09:30:42;94312.09;;;12.23;77.44
11329;BME280;5719;42.714;23.732;2024-03-06T09:33:08;94305.03;;;12.14;77.40
11329;BME280;5719;42.714;23.732;2024-03-06T09:35:35;94291.00;;;12.27;78.03
11329;BME280;5719;42.714;23.732;2024-03-06T09:38:02;94292.50;;;12.30;77.73
11329;BME280;5719;42.714;23.732;2024-03-06T09:40:29;94292.31;;;12.84;72.58
11329;BME280;5719;42.714;23.732;2024-03-06T09:42:56;94292.09;;;13.48;71.94
11329;BME280;5719;42.714;23.732;2024-03-06T09:45:24;94294.59;;;13.78;69.67
11329;BME280;5719;42.714;23.732;2024-03-06T09:47:52;94267.13;;;13.75;66.71
11329;BME280;5719;42.714;23.732;2024-03-06T09:50:22;94290.34;;;13.77;65.81
11329;BME280;5719;42.714;23.732;2024-03-06T09:52:51;94291.22;;;13.97;64.39
11329;BME280;5719;42.714;23.732;2024-03-06T09:55:19;94295.53;;;13.67;65.60
11329;BME280;5719;42.714;23.732;2024-03-06T09:57:46;94292.00;;;13.68;67.81
11329;BME280;5719;42.714;23.732;2024-03-06T10:00:13;94292.88;;;13.98;63.91
11329;BME280;5719;42.714;23.732;2024-03-06T10:02:48;94286.31;;;14.22;63.98
11329;BME280;5719;42.714;23.732;2024-03-06T10:05:22;94257.44;;;14.54;61.42
11329;BME280;5719;42.714;23.732;2024-03-06T10:07:50;94286.81;;;14.93;61.55
11329;BME280;5719;42.714;23.732;2024-03-06T10:10:18;94289.44;;;13.88;63.53
11329;BME280;5719;42.714;23.732;2024-03-06T10:12:45;94271.81;;;14.20;62.86
11329;BME280;5719;42.714;23.732;2024-03-06T10:15:13;94272.72;;;14.86;60.34
11329;BME280;5719;42.714;23.732;2024-03-06T10:17:40;94278.56;;;14.98;59.53
11329;BME280;5719;42.714;23.732;2024-03-06T10:20:23;94279.00;;;15.30;56.79
11329;BME280;5719;42.714;23.732;2024-03-06T10:22:51;94243.34;;;14.57;57.86
11329;BME280;5719;42.714;23.732;2024-03-06T10:25:19;94282.75;;;14.33;59.44
11329;BME280;5719;42.714;23.732;2024-03-06T10:27:46;94270.28;;;13.89;60.32
11329;BME280;5719;42.714;23.732;2024-03-06T10:30:13;94277.63;;;13.15;63.95
11329;BME280;5719;42.714;23.732;2024-03-06T10:32:42;94272.47;;;13.34;63.88
11329;BME280;5719;42.714;23.732;2024-03-06T10:35:18;94266.44;;;13.93;62.02
11329;BME280;5719;42.714;23.732;2024-03-06T10:37:48;94251.03;;;14.20;59.84
11329;BME280;5719;42.714;23.732;2024-03-06T10:40:15;94257.84;;;14.31;60.73
11329;BME280;5719;42.714;23.732;2024-03-06T10:42:45;94260.41;;;14.69;58.15
11329;BME280;5719;42.714;23.732;2024-03-06T10:45:14;94259.69;;;14.96;58.07
11329;BME280;5719;42.714;23.732;2024-03-06T10:47:45;94256.31;;;15.13;56.16
11329;BME280;5719;42.714;23.732;2024-03-06T10:50:14;94256.59;;;14.73;57.12
11329;BME280;5719;42.714;23.732;2024-03-06T10:52:41;94243.00;;;14.89;57.40
11329;BME280;5719;42.714;23.732;2024-03-06T10:55:15;94250.25;;;15.59;56.63
11329;BME280;5719;42.714;23.732;2024-03-06T10:57:42;94249.06;;;15.71;54.47
11329;BME280;5719;42.714;23.732;2024-03-06T11:00:10;94248.13;;;15.72;56.20
11329;BME280;5719;42.714;23.732;2024-03-06T11:02:46;94250.28;;;15.77;59.04
11329;BME280;5719;42.714;23.732;2024-03-06T11:05:16;94238.53;;;16.08;58.00
11329;BME280;5719;42.714;23.732;2024-03-06T11:07:43;94238.53;;;16.08;67.82
11329;BME280;5719;42.714;23.732;2024-03-06T11:10:10;94232.88;;;15.95;70.39
11329;BME280;5719;42.714;23.732;2024-03-06T11:12:43;94241.22;;;15.53;73.49
11329;BME280;5719;42.714;23.732;2024-03-06T11:15:14;94243.53;;;15.29;70.51
11329;BME280;5719;42.714;23.732;2024-03-06T11:17:42;94245.72;;;15.24;68.05
11329;BME280;5719;42.714;23.732;2024-03-06T11:20:13;94228.63;;;15.12;70.83
11329;BME280;5719;42.714;23.732;2024-03-06T11:23:09;94242.25;;;15.06;73.61
11329;BME280;5719;42.714;23.732;2024-03-06T11:25:56;94236.84;;;14.80;68.71
11329;BME280;5719;42.714;23.732;2024-03-06T11:28:26;94235.34;;;14.78;68.34
11329;BME280;5719;42.714;23.732;2024-03-06T11:30:58;94242.94;;;14.23;70.45
11329;BME280;5719;42.714;23.732;2024-03-06T11:33:34;94241.97;;;14.05;72.20
11329;BME280;5719;42.714;23.732;2024-03-06T11:36:19;94240.75;;;13.90;74.21
11329;BME280;5719;42.714;23.732;2024-03-06T11:38:50;94227.06;;;13.88;76.29
11329;BME280;5719;42.714;23.732;2024-03-06T11:41:18;94229.66;;;13.97;77.76
11329;BME280;5719;42.714;23.732;2024-03-06T11:43:48;94220.91;;;13.98;77.62
11329;BME280;5719;42.714;23.732;2024-03-06T11:46:16;94220.38;;;14.04;75.96
11329;BME280;5719;42.714;23.732;2024-03-06T11:48:51;94216.00;;;14.05;77.20
11329;BME280;5719;42.714;23.732;2024-03-06T11:51:18;94216.81;;;14.15;79.21
11329;BME280;5719;42.714;23.732;2024-03-06T11:53:54;94212.94;;;14.29;81.40
11329;BME280;5719;42.714;23.732;2024-03-06T11:56:21;94203.22;;;14.59;81.29
11329;BME280;5719;42.714;23.732;2024-03-06T11:58:49;94198.09;;;15.14;74.56
11329;BME280;5719;42.714;23.732;2024-03-06T12:01:16;94200.53;;;15.70;73.13
11329;BME280;5719;42.714;23.732;2024-03-06T12:03:43;94196.97;;;16.24;71.67
11329;BME280;5719;42.714;23.732;2024-03-06T12:06:11;94200.66;;;16.39;59.91
11329;BME280;5719;42.714;23.732;2024-03-06T12:08:39;94196.09;;;16.85;60.41
11329;BME280;5719;42.714;23.732;2024-03-06T12:11:06;94192.75;;;17.42;55.57
11329;BME280;5719;42.714;23.732;2024-03-06T12:13:33;94188.31;;;17.93;51.71
11329;BME280;5719;42.714;23.732;2024-03-06T12:16:05;94186.75;;;18.32;48.08
11329;BME280;5719;42.714;23.732;2024-03-06T12:18:33;94176.75;;;18.60;46.23
11329;BME280;5719;42.714;23.732;2024-03-06T12:21:01;94172.63;;;18.90;47.98
11329;BME280;5719;42.714;23.732;2024-03-06T12:23:28;94163.03;;;19.13;50.72
11329;BME280;5719;42.714;23.732;2024-03-06T12:26:08;94171.28;;;19.41;47.35
11329;BME280;5719;42.714;23.732;2024-03-06T12:28:36;94164.16;;;19.66;46.74
11329;BME280;5719;42.714;23.732;2024-03-06T12:31:05;94160.81;;;19.72;43.39
11329;BME280;5719;42.714;23.732;2024-03-06T12:33:33;94170.41;;;19.87;42.12
11329;BME280;5719;42.714;23.732;2024-03-06T12:36:02;94164.69;;;19.84;44.09
11329;BME280;5719;42.714;23.732;2024-03-06T12:38:30;94161.56;;;19.57;42.18
11329;BME280;5719;42.714;23.732;2024-03-06T12:40:57;94170.41;;;19.56;42.92
11329;BME280;5719;42.714;23.732;2024-03-06T12:43:24;94173.94;;;19.33;42.10
11329;BME280;5719;42.714;23.732;2024-03-06T12:45:51;94167.53;;;18.96;43.57
11329;BME280;5719;42.714;23.732;2024-03-06T12:48:21;94159.69;;;18.80;44.33
11329;BME280;5719;42.714;23.732;2024-03-06T12:50:48;94169.03;;;18.75;43.78
11329;BME280;5719;42.714;23.732;2024-03-06T12:53:18;94166.16;;;18.53;43.38
11329;BME280;5719;42.714;23.732;2024-03-06T12:55:45;94170.38;;;18.46;43.28
11329;BME280;5719;42.714;23.732;2024-03-06T12:58:12;94174.31;;;18.34;42.88
11329;BME280;5719;42.714;23.732;2024-03-06T13:00:39;94172.69;;;18.17;42.87
11329;BME280;5719;42.714;23.732;2024-03-06T13:03:06;94168.75;;;18.13;43.79